createdAt,value
2022-10-07T00:01:01.890Z,4.00
2022-10-07T00:03:29.912Z,4.30
2022-10-07T00:06:05.492Z,4.63
2022-10-07T00:08:34.121Z,5.20
2022-10-07T00:11:06.204Z,4.27
2022-10-07T00:13:38.904Z,4.67
2022-10-07T00:16:10.335Z,4.60
2022-10-07T00:18:38.881Z,4.63
2022-10-07T00:21:08.441Z,4.68
2022-10-07T00:23:36.416Z,4.00
2022-10-07T00:26:06.132Z,3.97
2022-10-07T00:28:37.293Z,3.73
2022-10-07T00:31:06.849Z,4.73
2022-10-07T00:33:38.248Z,3.90
2022-10-07T00:36:08.358Z,3.58
2022-10-07T00:38:36.391Z,3.60
2022-10-07T00:41:04.544Z,4.23
2022-10-07T00:43:33.182Z,4.20
2022-10-07T00:46:06.668Z,3.57
2022-10-07T00:48:39.201Z,3.47
2022-10-07T00:51:09.328Z,3.87
2022-10-07T00:53:40.477Z,5.00
2022-10-07T00:56:09.197Z,3.83
2022-10-07T00:58:39.042Z,4.10
2022-10-07T01:01:07.004Z,4.37
2022-10-07T01:03:36.039Z,4.07
2022-10-07T01:06:05.748Z,4.03
2022-10-07T01:08:33.861Z,4.57
2022-10-07T01:11:14.837Z,4.25
2022-10-07T01:13:49.354Z,4.57
2022-10-07T01:16:24.264Z,4.77
2022-10-07T01:18:58.859Z,5.30
2022-10-07T01:21:40.618Z,4.17
2022-10-07T01:24:26.458Z,4.13
2022-10-07T01:27:02.041Z,4.13
2022-10-07T01:29:35.760Z,6.00
2022-10-07T01:32:09.277Z,4.63
2022-10-07T01:34:38.483Z,4.47
2022-10-07T01:37:09.491Z,4.93
2022-10-07T01:39:42.258Z,4.80
2022-10-07T01:42:12.247Z,6.53
2022-10-07T01:44:41.186Z,4.40
2022-10-07T01:47:08.881Z,4.87
2022-10-07T01:49:37.002Z,5.20
2022-10-07T01:52:27.859Z,5.10
2022-10-07T01:55:19.658Z,5.20
2022-10-07T01:57:57.399Z,5.40
2022-10-07T02:00:25.127Z,5.00
2022-10-07T02:03:11.539Z,5.27
2022-10-07T02:05:50.289Z,4.80
2022-10-07T02:08:27.069Z,4.70
2022-10-07T02:11:05.163Z,4.70
2022-10-07T02:13:38.687Z,6.27
2022-10-07T02:16:16.220Z,4.60
2022-10-07T02:18:48.395Z,4.70
2022-10-07T02:21:19.705Z,4.23
2022-10-07T02:23:49.228Z,4.20
2022-10-07T02:26:21.939Z,5.47
2022-10-07T02:28:53.619Z,4.67
2022-10-07T02:31:24.961Z,4.80
2022-10-07T02:33:54.225Z,6.07
2022-10-07T02:36:29.533Z,4.80
2022-10-07T02:39:00.242Z,5.57
2022-10-07T02:41:35.712Z,6.80
2022-10-07T02:44:14.257Z,5.07
2022-10-07T02:46:48.185Z,5.05
2022-10-07T02:49:18.892Z,4.87
2022-10-07T02:51:49.625Z,4.90
2022-10-07T02:54:21.456Z,4.40
2022-10-07T02:56:51.245Z,4.70
2022-10-07T02:59:22.207Z,4.60
2022-10-07T03:01:54.389Z,5.80
2022-10-07T03:04:23.309Z,6.13
2022-10-07T03:06:51.008Z,6.10
2022-10-07T03:09:18.591Z,4.93
2022-10-07T03:11:46.254Z,6.47
2022-10-07T03:14:13.823Z,5.90
2022-10-07T03:16:42.896Z,5.13
2022-10-07T03:19:10.818Z,5.50
2022-10-07T03:21:40.512Z,5.77
2022-10-07T03:24:08.078Z,4.97
2022-10-07T03:26:36.371Z,4.93
2022-10-07T03:29:05.301Z,5.73
2022-10-07T03:31:33.054Z,4.57
2022-10-07T03:34:02.066Z,6.40
2022-10-07T03:36:29.782Z,6.47
2022-10-07T03:38:58.455Z,5.67
2022-10-07T03:41:26.114Z,5.20
2022-10-07T03:43:59.021Z,5.57
2022-10-07T03:46:26.745Z,5.97
2022-10-07T03:48:54.437Z,5.77
2022-10-07T03:51:23.823Z,6.17
2022-10-07T03:53:57.340Z,5.83
2022-10-07T03:56:24.993Z,8.47
2022-10-07T03:58:53.179Z,6.00
2022-10-07T04:01:20.850Z,5.60
2022-10-07T04:03:48.536Z,7.33
2022-10-07T04:06:17.878Z,6.23
2022-10-07T04:08:46.860Z,5.63
2022-10-07T04:11:14.436Z,6.00
2022-10-07T04:13:42.025Z,5.90
2022-10-07T04:16:10.607Z,5.53
2022-10-07T04:18:38.441Z,6.60
2022-10-07T04:21:06.312Z,6.87
2022-10-07T04:23:34.215Z,7.77
2022-10-07T04:26:07.536Z,6.27
2022-10-07T04:28:35.226Z,6.97
2022-10-07T04:31:05.341Z,6.53
2022-10-07T04:33:33.042Z,6.83
2022-10-07T04:36:05.537Z,6.17
2022-10-07T04:38:33.490Z,8.30
2022-10-07T04:41:06.812Z,7.80
2022-10-07T04:43:34.988Z,6.57
2022-10-07T04:46:04.615Z,6.37
2022-10-07T04:48:33.242Z,7.90
2022-10-07T04:51:04.508Z,6.17
2022-10-07T04:53:32.420Z,6.67
2022-10-07T04:56:00.439Z,6.90
2022-10-07T04:58:30.311Z,5.97
2022-10-07T05:00:59.303Z,4.63
2022-10-07T05:03:29.362Z,5.07
2022-10-07T05:06:05.554Z,5.90
2022-10-07T05:08:33.804Z,5.20
2022-10-07T05:11:03.218Z,5.10
2022-10-07T05:13:32.405Z,6.97
2022-10-07T05:16:01.728Z,8.70
2022-10-07T05:18:30.569Z,8.73
2022-10-07T05:20:58.445Z,10.87
2022-10-07T05:23:28.874Z,10.23
2022-10-07T05:26:01.658Z,11.27
2022-10-07T05:28:29.441Z,11.77
2022-10-07T05:31:07.411Z,12.77
2022-10-07T05:33:35.763Z,12.97
2022-10-07T05:36:04.465Z,14.47
2022-10-07T05:38:32.289Z,12.80
2022-10-07T05:41:01.197Z,16.07
2022-10-07T05:43:29.758Z,15.27
2022-10-07T05:46:03.976Z,14.67
2022-10-07T05:48:39.004Z,16.47
2022-10-07T05:51:08.162Z,14.77
2022-10-07T05:53:36.487Z,15.40
2022-10-07T05:56:07.195Z,18.23
2022-10-07T05:58:36.192Z,16.07
2022-10-07T06:01:11.391Z,15.43
2022-10-07T06:03:43.036Z,15.57
2022-10-07T06:06:11.382Z,16.27
2022-10-07T06:08:38.993Z,18.23
2022-10-07T06:11:25.427Z,13.97
2022-10-07T06:13:55.294Z,15.67
2022-10-07T06:16:24.007Z,13.63
2022-10-07T06:18:53.931Z,18.00
2022-10-07T06:21:23.732Z,15.27
2022-10-07T06:23:52.808Z,15.43
2022-10-07T06:26:21.123Z,14.00
2022-10-07T06:28:49.526Z,15.20
2022-10-07T06:31:22.415Z,14.93
2022-10-07T06:33:50.571Z,17.27
2022-10-07T06:36:19.572Z,18.90
2022-10-07T06:38:48.281Z,14.23
2022-10-07T06:41:16.698Z,20.63
2022-10-07T06:43:44.614Z,18.47
2022-10-07T06:46:17.315Z,19.83
2022-10-07T06:48:46.100Z,17.30
2022-10-07T06:51:15.233Z,17.47
2022-10-07T06:53:44.834Z,12.83
2022-10-07T06:56:14.126Z,17.20
2022-10-07T06:58:42.946Z,12.90
2022-10-07T07:01:10.894Z,12.53
2022-10-07T07:03:38.510Z,14.50
2022-10-07T07:06:09.361Z,13.03
2022-10-07T07:08:38.666Z,13.57
2022-10-07T07:11:30.973Z,14.13
2022-10-07T07:13:59.466Z,12.93
2022-10-07T07:16:27.546Z,15.33
2022-10-07T07:18:56.156Z,14.97
2022-10-07T07:21:24.655Z,16.43
2022-10-07T07:23:52.718Z,16.37
2022-10-07T07:26:21.706Z,15.93
2022-10-07T07:28:52.816Z,14.87
2022-10-07T07:31:21.251Z,19.40
2022-10-07T07:33:52.451Z,15.37
2022-10-07T07:36:22.754Z,16.57
2022-10-07T07:38:52.337Z,15.07
2022-10-07T07:41:24.027Z,13.73
2022-10-07T07:43:52.351Z,16.20
2022-10-07T07:46:21.079Z,15.37
2022-10-07T07:48:49.589Z,16.53
2022-10-07T07:51:18.977Z,12.53
2022-10-07T07:53:49.588Z,15.23
2022-10-07T07:56:18.773Z,13.13
2022-10-07T07:58:48.404Z,16.60
2022-10-07T08:01:18.668Z,16.70
2022-10-07T08:03:47.959Z,18.13
2022-10-07T08:06:17.866Z,16.57
2022-10-07T08:08:45.472Z,18.80
2022-10-07T08:11:15.744Z,15.33
2022-10-07T08:13:44.095Z,13.90
2022-10-07T08:16:14.573Z,13.73
2022-10-07T08:18:43.317Z,16.43
2022-10-07T08:21:11.481Z,16.87
2022-10-07T08:23:40.258Z,17.37
2022-10-07T08:26:10.063Z,15.87
2022-10-07T08:28:40.193Z,16.60
2022-10-07T08:31:10.113Z,18.53
2022-10-07T08:33:41.058Z,14.23
2022-10-07T08:36:12.623Z,15.53
2022-10-07T08:38:41.540Z,18.63
2022-10-07T08:41:24.108Z,16.03
2022-10-07T08:43:52.883Z,18.43
2022-10-07T08:46:27.150Z,18.27
2022-10-07T08:48:59.919Z,20.13
2022-10-07T08:51:34.224Z,14.30
2022-10-07T08:54:01.904Z,15.43
2022-10-07T08:56:30.494Z,15.43
2022-10-07T08:59:11.443Z,14.80
2022-10-07T09:01:52.326Z,15.67
2022-10-07T09:04:34.099Z,13.43
2022-10-07T09:07:05.887Z,15.50
2022-10-07T09:09:37.339Z,12.57
2022-10-07T09:12:08.599Z,14.43
2022-10-07T09:14:39.132Z,14.57
2022-10-07T09:17:14.067Z,18.93
2022-10-07T09:19:47.915Z,15.00
2022-10-07T09:22:21.323Z,17.33
2022-10-07T09:24:50.474Z,14.33
2022-10-07T09:27:22.750Z,13.27
2022-10-07T09:29:51.253Z,15.90
2022-10-07T09:32:21.139Z,14.93
2022-10-07T09:34:50.103Z,14.67
2022-10-07T09:37:20.755Z,15.13
2022-10-07T09:39:50.945Z,15.53
2022-10-07T09:42:38.724Z,17.60
2022-10-07T09:45:20.377Z,14.67
2022-10-07T09:47:52.534Z,15.23
2022-10-07T09:50:38.065Z,14.73
2022-10-07T09:53:07.596Z,15.47
2022-10-07T09:55:41.759Z,18.30
2022-10-07T09:58:19.220Z,14.87
2022-10-07T10:00:48.093Z,15.53
2022-10-07T10:03:16.373Z,14.90
2022-10-07T10:05:57.417Z,12.93
2022-10-07T10:08:28.713Z,15.07
2022-10-07T10:10:58.174Z,16.33
2022-10-07T10:13:28.678Z,13.93
2022-10-07T10:15:56.578Z,16.07
2022-10-07T10:18:34.045Z,14.90
2022-10-07T10:21:25.246Z,15.43
2022-10-07T10:23:54.726Z,15.90
2022-10-07T10:26:44.353Z,14.97
2022-10-07T10:29:21.992Z,15.43
2022-10-07T10:32:21.878Z,14.73
2022-10-07T10:34:58.027Z,14.70
2022-10-07T10:37:38.118Z,14.23
2022-10-07T10:40:19.082Z,18.30
2022-10-07T10:42:55.632Z,15.73
2022-10-07T10:45:35.899Z,14.70
2022-10-07T10:48:25.847Z,17.03
2022-10-07T10:50:59.387Z,16.87
2022-10-07T10:53:39.478Z,16.00
2022-10-07T10:56:23.834Z,15.03
2022-10-07T10:59:06.969Z,17.33
2022-10-07T11:01:38.419Z,15.17
2022-10-07T11:04:22.620Z,17.47
2022-10-07T11:06:56.984Z,14.30
2022-10-07T11:09:34.624Z,16.47
2022-10-07T11:12:06.236Z,14.03
2022-10-07T11:14:47.151Z,15.17
2022-10-07T11:17:16.677Z,15.30
2022-10-07T11:19:50.640Z,16.47
2022-10-07T11:22:33.240Z,14.50
2022-10-07T11:25:08.231Z,15.50
2022-10-07T11:27:36.290Z,14.97
2022-10-07T11:30:08.872Z,15.27
2022-10-07T11:32:43.153Z,14.67
2022-10-07T11:35:24.322Z,14.53
2022-10-07T11:37:59.733Z,16.73
2022-10-07T11:40:32.286Z,15.00
2022-10-07T11:43:07.148Z,16.30
2022-10-07T11:45:42.271Z,15.73
2022-10-07T11:48:13.890Z,16.27
2022-10-07T11:50:47.814Z,18.33
2022-10-07T11:53:20.516Z,16.07
2022-10-07T11:55:56.843Z,17.03
2022-10-07T11:58:27.103Z,15.37
2022-10-07T12:01:32.323Z,12.27
2022-10-07T12:04:25.586Z,10.87
2022-10-07T12:07:29.348Z,11.38
2022-10-07T12:10:18.140Z,12.90
2022-10-07T12:12:52.320Z,11.13
2022-10-07T12:15:29.812Z,11.65
2022-10-07T12:18:31.090Z,10.25
2022-10-07T12:21:04.565Z,12.33
2022-10-07T12:24:09.793Z,12.93
2022-10-07T12:26:48.123Z,7.80
2022-10-07T12:29:34.835Z,11.70
2022-10-07T12:32:02.872Z,8.75
2022-10-07T12:34:41.198Z,8.77
2022-10-07T12:37:42.081Z,8.40
2022-10-07T12:40:17.474Z,10.57
2022-10-07T12:42:52.898Z,7.47
2022-10-07T12:45:23.353Z,8.80
2022-10-07T12:47:56.876Z,8.98
2022-10-07T12:50:27.625Z,10.43
2022-10-07T12:52:58.785Z,8.95
2022-10-07T12:55:31.846Z,9.88
2022-10-07T12:58:21.267Z,8.18
2022-10-07T13:01:05.907Z,8.55
2022-10-07T13:03:54.811Z,12.27
2022-10-07T13:06:52.244Z,9.52
2022-10-07T13:09:44.694Z,8.73
2022-10-07T13:12:33.992Z,10.98
2022-10-07T13:15:16.761Z,9.40
2022-10-07T13:17:50.713Z,12.70
2022-10-07T13:20:33.794Z,10.32
2022-10-07T13:23:07.840Z,12.82
2022-10-07T13:25:36.488Z,15.43
2022-10-07T13:28:05.563Z,11.40
2022-10-07T13:30:40.231Z,13.45
2022-10-07T13:33:25.142Z,13.07
2022-10-07T13:36:06.191Z,11.88
2022-10-07T13:38:35.929Z,12.05
2022-10-07T13:41:08.123Z,14.55
2022-10-07T13:43:37.851Z,13.05
2022-10-07T13:46:10.247Z,11.73
2022-10-07T13:48:45.365Z,12.30
2022-10-07T13:51:21.811Z,14.55
2022-10-07T13:53:55.788Z,12.38
2022-10-07T13:56:26.852Z,11.85
2022-10-07T13:58:56.884Z,12.05
2022-10-07T14:01:27.624Z,12.55
2022-10-07T14:04:12.574Z,11.68
2022-10-07T14:06:52.262Z,9.15
2022-10-07T14:09:26.422Z,11.10
2022-10-07T14:11:57.557Z,14.00
2022-10-07T14:14:28.285Z,11.77
2022-10-07T14:17:00.150Z,10.73
2022-10-07T14:19:33.710Z,9.90
2022-10-07T14:22:03.633Z,8.45
2022-10-07T14:24:33.011Z,8.70
2022-10-07T14:27:00.632Z,10.65
2022-10-07T14:29:37.737Z,9.88
2022-10-07T14:32:30.643Z,8.98
2022-10-07T14:35:20.455Z,7.22
2022-10-07T14:37:49.346Z,7.50
2022-10-07T14:40:24.157Z,8.57
2022-10-07T14:42:54.119Z,8.63
2022-10-07T14:45:23.615Z,9.45
2022-10-07T14:47:51.320Z,7.95
2022-10-07T14:50:20.317Z,8.23
2022-10-07T14:52:52.016Z,9.48
2022-10-07T14:55:25.439Z,8.45
2022-10-07T14:57:53.236Z,8.60
2022-10-07T15:00:23.464Z,10.10
2022-10-07T15:02:52.979Z,7.93
2022-10-07T15:05:20.741Z,8.38
2022-10-07T15:07:49.917Z,8.88
2022-10-07T15:10:20.037Z,9.63
2022-10-07T15:12:49.386Z,9.25
2022-10-07T15:15:17.930Z,14.00
2022-10-07T15:17:45.613Z,10.45
2022-10-07T15:20:15.805Z,9.68
2022-10-07T15:22:44.478Z,9.10
2022-10-07T15:25:15.213Z,10.52
2022-10-07T15:27:43.199Z,11.98
2022-10-07T15:30:13.928Z,10.65
2022-10-07T15:32:42.241Z,11.60
2022-10-07T15:35:10.232Z,11.98
2022-10-07T15:37:37.837Z,10.00
2022-10-07T15:40:07.461Z,12.23
2022-10-07T15:42:35.092Z,11.85
2022-10-07T15:45:02.717Z,13.45
2022-10-07T15:47:33.267Z,9.00
2022-10-07T15:50:00.894Z,13.95
2022-10-07T15:52:28.655Z,11.68
2022-10-07T15:54:56.542Z,12.90
2022-10-07T15:57:24.915Z,14.35
2022-10-07T15:59:54.582Z,11.30
2022-10-07T16:02:22.485Z,11.80
2022-10-07T16:04:52.181Z,9.63
2022-10-07T16:07:19.816Z,13.43
2022-10-07T16:09:47.449Z,12.25
2022-10-07T16:12:15.377Z,11.40
2022-10-07T16:14:42.942Z,15.15
2022-10-07T16:17:10.569Z,10.65
2022-10-07T16:19:38.315Z,11.35
2022-10-07T16:22:07.274Z,11.93
2022-10-07T16:24:35.597Z,12.25
2022-10-07T16:27:03.659Z,12.25
2022-10-07T16:29:48.691Z,13.35
2022-10-07T16:32:16.464Z,12.60
2022-10-07T16:34:44.808Z,11.55
2022-10-07T16:37:14.842Z,11.68
2022-10-07T16:39:42.836Z,11.75
2022-10-07T16:42:10.485Z,13.88
2022-10-07T16:44:38.771Z,15.05
2022-10-07T16:47:06.451Z,14.15
2022-10-07T16:49:36.334Z,15.32
2022-10-07T16:52:04.426Z,13.32
2022-10-07T16:54:35.214Z,12.55
2022-10-07T16:57:02.834Z,15.23
2022-10-07T16:59:30.833Z,12.32
2022-10-07T17:02:02.210Z,13.23
2022-10-07T17:04:29.934Z,11.43
2022-10-07T17:06:58.198Z,11.75
2022-10-07T17:09:26.139Z,12.77
2022-10-07T17:11:56.774Z,13.38
2022-10-07T17:14:24.951Z,17.75
2022-10-07T17:16:54.171Z,12.35
2022-10-07T17:19:24.957Z,12.88
2022-10-07T17:21:54.064Z,14.43
2022-10-07T17:24:23.011Z,17.23
2022-10-07T17:26:52.413Z,15.93
2022-10-07T17:29:23.290Z,17.88
2022-10-07T17:31:51.204Z,15.27
2022-10-07T17:34:20.687Z,15.27
2022-10-07T17:36:48.683Z,14.77
2022-10-07T17:39:17.153Z,15.57
2022-10-07T17:41:44.935Z,16.02
2022-10-07T17:44:13.739Z,14.73
2022-10-07T17:46:43.163Z,15.23
2022-10-07T17:49:14.166Z,15.23
2022-10-07T17:51:42.926Z,16.50
2022-10-07T17:54:12.347Z,14.65
2022-10-07T17:56:40.193Z,14.23
2022-10-07T17:59:07.974Z,15.38
2022-10-07T18:01:36.464Z,17.80
2022-10-07T18:04:07.152Z,13.95
2022-10-07T18:06:36.926Z,13.48
2022-10-07T18:09:06.735Z,16.15
2022-10-07T18:11:52.761Z,17.25
2022-10-07T18:14:38.735Z,21.48
2022-10-07T18:17:07.783Z,16.45
2022-10-07T18:19:36.796Z,16.73
2022-10-07T18:22:04.495Z,17.30
2022-10-07T18:24:32.263Z,15.00
2022-10-07T18:27:01.901Z,15.15
2022-10-07T18:29:31.079Z,15.32
2022-10-07T18:31:58.949Z,16.10
2022-10-07T18:34:26.626Z,18.02
2022-10-07T18:36:57.165Z,16.92
2022-10-07T18:39:27.158Z,17.60
2022-10-07T18:41:54.803Z,16.27
2022-10-07T18:44:22.538Z,16.75
2022-10-07T18:46:50.260Z,18.45
2022-10-07T18:49:17.983Z,17.63
2022-10-07T18:51:47.090Z,18.98
2022-10-07T18:54:16.280Z,19.40
2022-10-07T18:56:43.898Z,19.58
2022-10-07T18:59:13.110Z,14.15
2022-10-07T19:01:41.660Z,13.80
2022-10-07T19:04:10.849Z,15.93
2022-10-07T19:06:43.758Z,14.53
2022-10-07T19:09:15.132Z,14.30
2022-10-07T19:11:44.159Z,14.17
2022-10-07T19:14:11.506Z,14.63
2022-10-07T19:16:40.560Z,14.63
2022-10-07T19:19:11.949Z,13.80
2022-10-07T19:21:39.808Z,13.40
2022-10-07T19:24:07.832Z,15.67
2022-10-07T19:26:37.517Z,13.83
2022-10-07T19:29:08.971Z,14.40
2022-10-07T19:31:40.258Z,14.97
2022-10-07T19:34:09.913Z,13.87
2022-10-07T19:36:40.101Z,14.63
2022-10-07T19:39:08.039Z,14.53
2022-10-07T19:41:37.431Z,14.33
2022-10-07T19:44:06.547Z,14.93
2022-10-07T19:46:34.726Z,15.63
2022-10-07T19:49:03.808Z,15.97
2022-10-07T19:51:32.994Z,16.13
2022-10-07T19:54:03.030Z,17.47
2022-10-07T19:56:32.678Z,15.37
2022-10-07T19:59:02.349Z,15.27
2022-10-07T20:01:32.921Z,15.50
2022-10-07T20:04:04.092Z,14.87
2022-10-07T20:06:32.431Z,15.67
2022-10-07T20:09:00.248Z,16.50
2022-10-07T20:11:28.674Z,17.70
2022-10-07T20:13:56.231Z,16.43
2022-10-07T20:16:25.950Z,16.03
2022-10-07T20:19:00.943Z,16.10
2022-10-07T20:21:30.321Z,17.20
2022-10-07T20:23:58.323Z,16.63
2022-10-07T20:26:27.746Z,16.97
2022-10-07T20:28:57.442Z,15.17
2022-10-07T20:31:27.178Z,16.20
2022-10-07T20:33:58.738Z,15.20
2022-10-07T20:36:28.805Z,16.17
2022-10-07T20:39:14.954Z,16.57
2022-10-07T20:42:00.228Z,17.13
2022-10-07T20:44:28.068Z,15.57
2022-10-07T20:46:59.575Z,16.37
2022-10-07T20:49:31.035Z,15.83
2022-10-07T20:52:03.279Z,16.93
2022-10-07T20:54:33.061Z,16.70
2022-10-07T20:57:01.516Z,15.50
2022-10-07T20:59:30.978Z,18.37
2022-10-07T21:01:59.493Z,16.57
2022-10-07T21:04:29.146Z,16.53
2022-10-07T21:06:57.191Z,17.20
2022-10-07T21:09:25.786Z,17.13
2022-10-07T21:11:54.266Z,14.37
2022-10-07T21:14:22.614Z,16.77
2022-10-07T21:16:52.046Z,16.40
2022-10-07T21:19:19.746Z,15.87
2022-10-07T21:21:50.887Z,16.80
2022-10-07T21:24:18.686Z,14.00
2022-10-07T21:26:47.002Z,15.00
2022-10-07T21:29:15.215Z,14.37
2022-10-07T21:31:45.736Z,15.10
2022-10-07T21:34:13.377Z,15.27
2022-10-07T21:36:50.355Z,15.43
2022-10-07T21:39:21.945Z,14.37
2022-10-07T21:41:50.218Z,16.20
2022-10-07T21:44:18.487Z,13.40
2022-10-07T21:46:46.717Z,13.73
2022-10-07T21:49:14.922Z,14.10
2022-10-07T21:51:42.970Z,13.57
2022-10-07T21:54:14.023Z,13.43
2022-10-07T21:56:46.997Z,13.70
2022-10-07T21:59:15.195Z,13.73
2022-10-07T22:01:43.410Z,13.93
2022-10-07T22:04:17.178Z,12.67
2022-10-07T22:07:02.951Z,14.07
2022-10-07T22:09:31.248Z,13.33
2022-10-07T22:12:00.212Z,12.67
2022-10-07T22:14:28.625Z,12.30
2022-10-07T22:16:56.294Z,12.53
2022-10-07T22:19:23.910Z,13.17
2022-10-07T22:21:51.645Z,11.77
2022-10-07T22:24:19.368Z,12.10
2022-10-07T22:26:50.973Z,11.87
2022-10-07T22:29:21.646Z,11.63
2022-10-07T22:31:49.635Z,10.33
2022-10-07T22:34:31.260Z,10.50
2022-10-07T22:36:59.004Z,11.07
2022-10-07T22:39:26.866Z,9.83
2022-10-07T22:41:54.459Z,10.73
2022-10-07T22:44:23.464Z,10.40
2022-10-07T22:46:51.120Z,10.40
2022-10-07T22:49:18.707Z,9.77
2022-10-07T22:51:46.386Z,10.63
2022-10-07T22:54:15.157Z,10.00
2022-10-07T22:56:42.780Z,10.43
2022-10-07T22:59:10.999Z,12.00
2022-10-07T23:01:40.224Z,12.23
2022-10-07T23:04:07.771Z,11.07
2022-10-07T23:06:36.584Z,10.63
2022-10-07T23:09:05.468Z,11.67
2022-10-07T23:11:33.171Z,11.43
2022-10-07T23:14:00.918Z,11.33
2022-10-07T23:16:31.188Z,11.73
2022-10-07T23:19:00.113Z,11.63
2022-10-07T23:21:29.364Z,10.77
2022-10-07T23:24:04.371Z,12.10
2022-10-07T23:26:34.902Z,10.83
2022-10-07T23:29:03.164Z,11.07
2022-10-07T23:31:32.858Z,11.03
2022-10-07T23:34:03.239Z,10.80
2022-10-07T23:36:31.602Z,11.43
2022-10-07T23:39:00.586Z,11.43
2022-10-07T23:41:30.429Z,10.10
2022-10-07T23:44:00.411Z,11.87
2022-10-07T23:46:28.938Z,11.63
2022-10-07T23:48:57.048Z,10.13
2022-10-07T23:51:28.170Z,11.07
2022-10-07T23:53:57.297Z,10.27
2022-10-07T23:56:24.923Z,11.20
2022-10-07T23:58:52.861Z,10.67
